createdAt,value
2022-09-24T11:01:55.893Z,31.40
2022-09-24T11:03:49.530Z,23.80
2022-09-24T11:05:24.876Z,26.60
2022-09-24T11:07:22.690Z,24.80
2022-09-24T11:09:01.218Z,23.80
2022-09-24T11:10:51.725Z,22.40
2022-09-24T11:12:28.002Z,26.80
2022-09-24T11:14:14.477Z,26.20
2022-09-24T11:15:56.230Z,23.80
2022-09-24T11:17:33.848Z,28.20
2022-09-24T11:19:16.209Z,17.60
2022-09-24T11:21:18.101Z,23.40
2022-09-24T11:22:56.252Z,26.00
2022-09-24T11:24:34.068Z,28.00
2022-09-24T11:26:21.106Z,17.20
2022-09-24T11:28:23.830Z,18.60
2022-09-24T11:30:13.775Z,19.00
2022-09-24T11:32:09.505Z,25.00
2022-09-24T11:34:29.417Z,26.80
2022-09-24T11:36:18.675Z,28.00
2022-09-24T11:38:09.194Z,20.00
2022-09-24T11:40:05.122Z,26.60
2022-09-24T11:41:48.961Z,26.20
2022-09-24T11:43:48.308Z,16.60
2022-09-24T11:45:59.068Z,23.40
2022-09-24T11:47:49.340Z,19.60
2022-09-24T11:49:47.326Z,23.80
2022-09-24T11:51:30.175Z,27.60
2022-09-24T11:53:14.026Z,19.80
2022-09-24T11:54:59.317Z,19.80
2022-09-24T11:56:36.654Z,22.00
2022-09-24T11:58:26.527Z,22.00
2022-09-24T12:00:07.564Z,25.20
2022-09-24T12:01:40.643Z,17.00
2022-09-24T12:03:20.897Z,13.80
2022-09-24T12:05:08.521Z,19.20
2022-09-24T12:06:43.906Z,17.20
2022-09-24T12:08:49.285Z,23.60
2022-09-24T12:10:42.442Z,15.60
2022-09-24T12:12:22.088Z,17.60
2022-09-24T12:14:13.656Z,22.40
2022-09-24T12:16:00.924Z,20.40
2022-09-24T12:17:58.002Z,15.40
2022-09-24T12:19:33.174Z,13.80
2022-09-24T12:21:07.235Z,18.80
2022-09-24T12:22:39.277Z,18.00
2022-09-24T12:24:16.832Z,16.00
2022-09-24T12:25:49.268Z,15.20
2022-09-24T12:27:23.128Z,14.60
2022-09-24T12:29:19.423Z,14.80
2022-09-24T12:31:12.456Z,13.20
2022-09-24T12:33:03.319Z,13.40
2022-09-24T12:35:09.793Z,13.60
2022-09-24T12:36:57.077Z,18.60
2022-09-24T12:38:30.885Z,18.40
2022-09-24T12:40:08.842Z,11.60
2022-09-24T12:41:44.868Z,16.40
2022-09-24T12:43:42.517Z,10.60
2022-09-24T12:45:17.839Z,16.40
2022-09-24T12:46:54.022Z,13.20
2022-09-24T12:48:25.758Z,16.20
2022-09-24T12:50:01.879Z,15.40
2022-09-24T12:51:37.090Z,17.60
2022-09-24T12:53:24.747Z,8.20
2022-09-24T12:55:01.044Z,14.60
2022-09-24T12:56:32.733Z,15.00
2022-09-24T12:58:06.070Z,12.20
2022-09-24T13:00:27.475Z,12.00
2022-09-24T13:02:18.776Z,12.00
2022-09-24T13:04:14.943Z,11.00
2022-09-24T13:05:47.722Z,14.20
2022-09-24T13:07:32.494Z,18.20
2022-09-24T13:09:04.822Z,15.00
2022-09-24T13:10:36.740Z,16.80
2022-09-24T13:12:17.766Z,8.20
2022-09-24T13:14:02.693Z,22.60
2022-09-24T13:15:40.865Z,15.80
2022-09-24T13:17:13.421Z,14.00
2022-09-24T13:18:58.855Z,11.20
2022-09-24T13:20:30.587Z,24.00
2022-09-24T13:22:02.661Z,15.80
2022-09-24T13:23:37.060Z,17.20
2022-09-24T13:25:08.701Z,17.00
2022-09-24T13:26:40.417Z,14.40
2022-09-24T13:28:37.862Z,3.20
2022-09-24T13:30:21.447Z,15.20
2022-09-24T13:31:57.269Z,14.20
2022-09-24T13:33:31.992Z,12.20
2022-09-24T13:35:07.174Z,16.00
2022-09-24T13:36:50.917Z,17.40
2022-09-24T13:38:25.074Z,17.80
2022-09-24T13:40:07.216Z,16.60
2022-09-24T13:41:51.055Z,11.20
2022-09-24T13:43:35.891Z,12.80
2022-09-24T13:45:12.049Z,13.20
2022-09-24T13:46:45.072Z,10.40
2022-09-24T13:48:31.856Z,12.00
2022-09-24T13:50:08.663Z,13.80
2022-09-24T13:51:41.369Z,15.00
2022-09-24T13:53:12.988Z,11.60
2022-09-24T13:54:53.259Z,16.20
2022-09-24T13:56:25.028Z,12.80
2022-09-24T13:57:56.926Z,13.80
2022-09-24T13:59:28.757Z,10.20
2022-09-24T14:01:08.716Z,13.20
2022-09-24T14:02:45.276Z,10.60
2022-09-24T14:04:19.057Z,12.00
2022-09-24T14:05:51.302Z,10.40
2022-09-24T14:07:23.628Z,11.40
2022-09-24T14:08:55.256Z,9.20
2022-09-24T14:10:26.927Z,9.80
2022-09-24T14:12:03.148Z,11.60
2022-09-24T14:13:38.455Z,11.00
2022-09-24T14:15:14.632Z,12.00
2022-09-24T14:16:46.302Z,10.40
2022-09-24T14:18:18.033Z,10.40
2022-09-24T14:19:54.740Z,9.40
2022-09-24T14:21:28.282Z,9.80
2022-09-24T14:22:59.941Z,10.20
2022-09-24T14:24:36.274Z,8.80
2022-09-24T14:26:08.156Z,13.40
2022-09-24T14:27:44.444Z,17.80
2022-09-24T14:29:27.926Z,23.40
2022-09-24T14:30:59.661Z,24.40
2022-09-24T14:32:33.048Z,24.40
2022-09-24T14:34:04.978Z,32.00
2022-09-24T14:35:37.596Z,62.40
2022-09-24T14:37:17.373Z,52.20
2022-09-24T14:38:57.491Z,52.40
2022-09-24T14:40:29.283Z,48.00
2022-09-24T14:42:00.973Z,55.80
2022-09-24T14:43:42.373Z,63.60
2022-09-24T14:45:21.359Z,62.40
2022-09-24T14:46:59.208Z,67.50
2022-09-24T14:48:32.283Z,61.00
2022-09-24T14:50:05.209Z,61.50
2022-09-24T14:51:36.885Z,77.50
2022-09-24T14:53:27.110Z,78.25
2022-09-24T14:55:18.650Z,81.50
2022-09-24T14:56:50.299Z,81.25
2022-09-24T14:58:34.998Z,110.75
2022-09-24T15:00:26.683Z,87.00
2022-09-24T15:02:37.238Z,88.75
2022-09-24T15:04:18.468Z,89.00
2022-09-24T15:05:50.599Z,93.25
2022-09-24T15:07:26.182Z,111.00
2022-09-24T15:08:58.999Z,91.25
2022-09-24T15:10:30.726Z,101.00
2022-09-24T15:12:10.269Z,101.60
2022-09-24T15:13:41.981Z,111.40
2022-09-24T15:15:24.966Z,112.80
2022-09-24T15:16:58.259Z,150.00
2022-09-24T15:18:29.975Z,119.50
2022-09-24T15:20:02.649Z,163.00
2022-09-24T15:21:34.599Z,152.00
2022-09-24T15:23:06.366Z,114.60
2022-09-24T15:24:38.177Z,104.25
2022-09-24T15:26:09.881Z,105.00
2022-09-24T15:27:44.411Z,92.00
2022-09-24T15:29:19.087Z,139.00
2022-09-24T15:30:50.936Z,137.00
2022-09-24T15:32:22.719Z,95.50
2022-09-24T15:33:56.114Z,88.75
2022-09-24T15:35:27.852Z,91.50
2022-09-24T15:36:59.523Z,104.75
2022-09-24T15:38:31.568Z,92.25
2022-09-24T15:40:08.029Z,92.50
2022-09-24T15:41:39.745Z,103.00
2022-09-24T15:43:24.647Z,93.00
2022-09-24T15:44:56.523Z,87.25
2022-09-24T15:46:28.218Z,144.00
2022-09-24T15:47:59.938Z,169.00
2022-09-24T15:49:31.963Z,172.25
2022-09-24T15:51:09.643Z,150.50
2022-09-24T15:52:52.843Z,152.50
2022-09-24T15:54:24.974Z,145.00
2022-09-24T15:55:59.173Z,127.80
2022-09-24T15:57:30.814Z,127.80
2022-09-24T15:59:02.537Z,92.00
2022-09-24T16:00:34.590Z,100.75
2022-09-24T16:02:11.307Z,93.25
2022-09-24T16:03:44.381Z,94.25
2022-09-24T16:05:16.082Z,105.00
2022-09-24T16:06:47.859Z,97.75
2022-09-24T16:08:19.783Z,86.50
2022-09-24T16:09:52.309Z,85.00
2022-09-24T16:11:24.099Z,87.00
2022-09-24T16:12:55.852Z,95.00
2022-09-24T16:14:27.608Z,85.25
2022-09-24T16:16:04.487Z,81.75
2022-09-24T16:17:38.474Z,85.25
2022-09-24T16:19:10.322Z,103.50
2022-09-24T16:20:42.120Z,88.50
2022-09-24T16:22:16.906Z,85.25
2022-09-24T16:23:57.645Z,88.75
2022-09-24T16:25:29.438Z,87.00
2022-09-24T16:27:01.720Z,95.50
2022-09-24T16:28:33.470Z,85.50
2022-09-24T16:30:06.304Z,105.50
2022-09-24T16:31:38.164Z,93.50
2022-09-24T16:33:09.862Z,85.00
2022-09-24T16:34:43.161Z,92.50
2022-09-24T16:36:14.989Z,93.75
2022-09-24T16:37:46.705Z,101.75
2022-09-24T16:39:20.415Z,98.25
2022-09-24T16:40:59.765Z,97.00
2022-09-24T16:42:31.494Z,102.50
2022-09-24T16:44:03.712Z,96.25
2022-09-24T16:45:35.395Z,106.75
2022-09-24T16:47:07.065Z,167.00
2022-09-24T16:48:39.120Z,127.50
2022-09-24T16:50:10.798Z,106.80
2022-09-24T16:51:42.516Z,110.20
2022-09-24T16:53:15.374Z,147.75
2022-09-24T16:54:47.023Z,119.20
2022-09-24T16:56:19.184Z,103.25
2022-09-24T16:57:51.981Z,117.40
2022-09-24T16:59:23.778Z,106.25
2022-09-24T17:00:55.952Z,107.00
2022-09-24T17:02:27.621Z,108.00
2022-09-24T17:03:59.503Z,99.75
2022-09-24T17:05:31.381Z,108.75
2022-09-24T17:07:03.066Z,99.50
2022-09-24T17:08:54.284Z,105.75
2022-09-24T17:10:25.960Z,92.75
2022-09-24T17:11:57.767Z,111.25
2022-09-24T17:13:29.459Z,104.40
2022-09-24T17:15:02.108Z,107.25
2022-09-24T17:16:34.783Z,110.20
2022-09-24T17:18:06.461Z,112.00
2022-09-24T17:19:38.113Z,121.20
2022-09-24T17:21:11.303Z,116.80
2022-09-24T17:22:42.989Z,127.80
2022-09-24T17:24:20.589Z,105.60
2022-09-24T17:26:04.306Z,124.80
2022-09-24T17:27:36.121Z,113.60
2022-09-24T17:29:07.868Z,118.00
2022-09-24T17:30:39.859Z,124.80
2022-09-24T17:32:11.505Z,118.00
2022-09-24T17:33:44.372Z,131.50
2022-09-24T17:35:16.395Z,129.60
2022-09-24T17:36:48.088Z,126.80
2022-09-24T17:38:19.764Z,159.25
2022-09-24T17:39:51.456Z,133.50
2022-09-24T17:41:25.929Z,245.00
2022-09-24T17:42:57.590Z,170.00
2022-09-24T17:44:29.379Z,261.67
2022-09-24T17:46:03.331Z,139.25
2022-09-24T17:47:55.209Z,125.25
2022-09-24T17:49:26.894Z,148.25
2022-09-24T17:51:02.950Z,139.00
2022-09-24T17:52:34.676Z,137.25
2022-09-24T17:54:08.702Z,129.75
2022-09-24T17:55:48.786Z,142.50
2022-09-24T17:57:21.245Z,133.50
2022-09-24T17:58:54.341Z,126.25
2022-09-24T18:00:25.973Z,149.50
2022-09-24T18:01:57.832Z,144.25
2022-09-24T18:03:29.561Z,150.25
2022-09-24T18:05:01.207Z,146.50
2022-09-24T18:06:34.645Z,137.50
2022-09-24T18:08:06.372Z,125.50
2022-09-24T18:09:38.091Z,134.25
2022-09-24T18:11:12.303Z,139.50
2022-09-24T18:12:43.991Z,230.25
2022-09-24T18:14:17.482Z,221.25
2022-09-24T18:15:49.848Z,159.25
2022-09-24T18:17:21.491Z,222.75
2022-09-24T18:18:53.271Z,192.00
2022-09-24T18:20:25.323Z,190.50
2022-09-24T18:21:59.243Z,186.00
2022-09-24T18:23:31.152Z,161.00
2022-09-24T18:25:02.936Z,156.25
2022-09-24T18:26:35.778Z,205.50
2022-09-24T18:28:07.803Z,227.67
2022-09-24T18:29:40.355Z,181.75
2022-09-24T18:31:13.113Z,172.75
2022-09-24T18:32:46.135Z,173.00
2022-09-24T18:34:17.794Z,199.50
2022-09-24T18:35:49.498Z,158.50
2022-09-24T18:37:21.229Z,193.25
2022-09-24T18:38:53.256Z,181.25
2022-09-24T18:40:25.411Z,184.25
2022-09-24T18:41:57.093Z,181.50
2022-09-24T18:43:30.475Z,149.50
2022-09-24T18:45:02.872Z,172.00
2022-09-24T18:46:35.123Z,178.50
2022-09-24T18:48:06.973Z,171.00
2022-09-24T18:49:38.810Z,177.25
2022-09-24T18:51:20.263Z,175.00
2022-09-24T18:52:52.474Z,172.75
2022-09-24T18:54:24.698Z,186.00
2022-09-24T18:55:56.507Z,184.00
2022-09-24T18:57:28.213Z,193.75
2022-09-24T18:59:04.685Z,181.00
2022-09-24T19:00:51.387Z,193.00
2022-09-24T19:02:25.246Z,185.50
2022-09-24T19:04:00.105Z,192.00
2022-09-24T19:05:31.749Z,193.00
2022-09-24T19:07:03.470Z,160.50
2022-09-24T19:08:35.194Z,187.00
2022-09-24T19:10:07.163Z,180.25
2022-09-24T19:11:39.285Z,176.75
2022-09-24T19:13:11.066Z,178.75
2022-09-24T19:14:42.756Z,191.75
2022-09-24T19:16:15.014Z,175.25
2022-09-24T19:17:46.713Z,168.25
2022-09-24T19:19:18.414Z,192.50
2022-09-24T19:20:50.037Z,182.50
2022-09-24T19:22:21.725Z,185.75
2022-09-24T19:23:55.026Z,194.25
2022-09-24T19:25:33.486Z,175.50
2022-09-24T19:27:05.389Z,203.00
2022-09-24T19:28:39.397Z,200.00
2022-09-24T19:30:12.516Z,172.00
2022-09-24T19:31:46.061Z,188.25
2022-09-24T19:33:17.975Z,179.75
2022-09-24T19:34:49.834Z,262.67
2022-09-24T19:36:22.254Z,280.25
2022-09-24T19:37:53.966Z,221.00
2022-09-24T19:39:25.630Z,201.50
2022-09-24T19:41:14.108Z,212.75
2022-09-24T19:42:46.740Z,225.50
2022-09-24T19:44:18.738Z,203.50
2022-09-24T19:45:58.345Z,206.25
2022-09-24T19:47:30.093Z,190.75
2022-09-24T19:49:01.959Z,191.75
2022-09-24T19:50:35.043Z,182.25
2022-09-24T19:52:07.407Z,207.75
2022-09-24T19:53:39.183Z,212.75
2022-09-24T19:55:10.928Z,203.25
2022-09-24T19:56:42.662Z,216.25
2022-09-24T19:58:14.496Z,197.75
2022-09-24T19:59:46.290Z,202.25
2022-09-24T20:01:18.185Z,188.75
2022-09-24T20:02:50.803Z,214.33
2022-09-24T20:04:24.034Z,195.75
2022-09-24T20:05:55.788Z,194.00
2022-09-24T20:07:27.636Z,214.75
2022-09-24T20:08:59.428Z,208.00
2022-09-24T20:10:31.537Z,210.33
2022-09-24T20:12:03.292Z,219.67
2022-09-24T20:13:34.971Z,206.00
2022-09-24T20:15:07.150Z,213.33
2022-09-24T20:16:40.357Z,212.33
2022-09-24T20:18:12.238Z,235.00
2022-09-24T20:19:43.870Z,219.33
2022-09-24T20:21:17.246Z,217.00
2022-09-24T20:22:49.284Z,215.00
2022-09-24T20:24:21.300Z,220.67
2022-09-24T20:26:12.133Z,210.00
2022-09-24T20:27:52.614Z,221.00
2022-09-24T20:29:24.518Z,229.67
2022-09-24T20:30:56.528Z,239.00
2022-09-24T20:32:28.256Z,220.67
2022-09-24T20:34:00.126Z,223.67
2022-09-24T20:35:32.119Z,219.67
2022-09-24T20:37:04.563Z,228.33
2022-09-24T20:38:37.891Z,221.00
2022-09-24T20:40:09.957Z,216.00
2022-09-24T20:41:42.750Z,227.00
2022-09-24T20:43:14.364Z,229.00
2022-09-24T20:44:46.348Z,224.33
2022-09-24T20:46:21.863Z,199.25
2022-09-24T20:47:53.827Z,217.33
2022-09-24T20:49:25.591Z,216.33
2022-09-24T20:50:57.337Z,222.33
2022-09-24T20:52:29.038Z,210.33
2022-09-24T20:54:00.900Z,195.00
2022-09-24T20:55:32.627Z,208.50
2022-09-24T20:57:04.401Z,217.33
2022-09-24T20:58:36.692Z,179.50
2022-09-24T21:00:10.728Z,213.33
2022-09-24T21:01:42.705Z,201.67
2022-09-24T21:03:39.350Z,208.75
2022-09-24T21:05:09.400Z,182.50
2022-09-24T21:06:41.137Z,212.75
2022-09-24T21:08:16.161Z,190.00
2022-09-24T21:09:47.966Z,194.25
2022-09-24T21:11:21.341Z,197.50
2022-09-24T21:12:52.972Z,218.00
2022-09-24T21:14:26.177Z,211.00
2022-09-24T21:16:03.287Z,184.25
2022-09-24T21:17:35.093Z,194.75
2022-09-24T21:19:08.023Z,207.50
2022-09-24T21:20:39.870Z,207.00
2022-09-24T21:22:12.676Z,218.25
2022-09-24T21:23:45.169Z,222.00
2022-09-24T21:25:36.175Z,212.00
2022-09-24T21:27:08.681Z,192.00
2022-09-24T21:28:40.986Z,182.75
2022-09-24T21:30:12.699Z,206.25
2022-09-24T21:31:46.075Z,207.00
2022-09-24T21:33:17.789Z,230.00
2022-09-24T21:34:49.423Z,217.33
2022-09-24T21:36:28.915Z,193.00
2022-09-24T21:38:00.617Z,175.00
2022-09-24T21:39:32.242Z,168.50
2022-09-24T21:41:08.339Z,176.00
2022-09-24T21:42:40.111Z,177.75
2022-09-24T21:44:13.335Z,164.75
2022-09-24T21:45:45.027Z,164.25
2022-09-24T21:47:17.984Z,155.75
2022-09-24T21:48:49.638Z,147.50
2022-09-24T21:50:21.288Z,144.50
2022-09-24T21:51:56.943Z,156.75
2022-09-24T21:53:28.600Z,144.25
2022-09-24T21:55:00.199Z,145.25
2022-09-24T21:56:32.531Z,154.75
2022-09-24T21:58:04.164Z,133.25
2022-09-24T21:59:54.375Z,132.00
2022-09-24T22:01:30.432Z,132.25
2022-09-24T22:03:02.162Z,132.75
2022-09-24T22:04:33.958Z,138.75
2022-09-24T22:06:05.749Z,128.50
2022-09-24T22:07:38.190Z,126.75
2022-09-24T22:09:10.315Z,131.25
2022-09-24T22:10:42.831Z,102.75
2022-09-24T22:12:14.557Z,126.75
2022-09-24T22:13:47.573Z,126.00
2022-09-24T22:15:19.248Z,123.60
2022-09-24T22:16:51.021Z,128.75
2022-09-24T22:18:23.492Z,131.40
2022-09-24T22:19:55.146Z,119.60
2022-09-24T22:21:27.253Z,123.60
2022-09-24T22:22:58.900Z,118.25
2022-09-24T22:24:30.723Z,119.25
2022-09-24T22:26:02.391Z,121.75
2022-09-24T22:27:34.071Z,120.00
2022-09-24T22:29:05.920Z,128.00
2022-09-24T22:30:44.697Z,131.50
2022-09-24T22:32:16.415Z,115.75
2022-09-24T22:34:07.017Z,129.25
